Asotin, Washington
Current Conditions -  °F | °C
As of 12:23 AM on Thursday 29 Jan 2015 (Local Time) from KLWS Reporting Station
Moderate Fog Moderate Fog  
Wind Chill:   Ceiling: 100
Heat Index:   Visibility: 0.25mi
Dew Point:   Wind: 0mph
Humidity: 100%   Direction: NA
Pressure: 30.43"   Gusts: NA
Location:  46.34°N, 117.05°W
Report Text: KLWS 290823Z AUTO 00000KT 1/4SM FG VV001 01/01 A3043 RMK AO2 T00110011
Loading
Personal Weather Stations






























Interactive Weather Map New forecast layout! Learn more

10-Day Weather Forecast

Advertisements
Track Severe Weather on mobile